Time;durP1;ratioP1;P1;durP2;ratioP2;P2;SDS_P1;SDS_P2;PMS_P1;PMS_P2;Temp;Humidity;BMP_temperature;BMP_pressure;BME280_temperature;BME280_humidity;BME280_pressure;Samples;Min_cycle;Max_cycle;Signal;HPM_P1;HPM_P2
2021/06/09 00:00:29;;;;;;;;;;;;;;;12.91;81.34;102248.41;5031600;28;848;-83
2021/06/09 00:02:55;;;;;;;;;;;;;;;12.90;81.14;102247.56;5030214;28;2024;-83
2021/06/09 00:05:21;;;;;;;;;;;;;;;12.90;80.87;102243.97;5030856;28;1648;-82
2021/06/09 00:07:46;;;;;;;;;;;;;;;12.87;80.97;102241.84;5028420;28;1929;-84
2021/06/09 00:10:12;;;;;;;;;;;;;;;12.86;81.07;102243.81;5011191;28;1207;-83
2021/06/09 00:12:38;;;;;;;;;;;;;;;12.86;81.46;102245.78;5030411;28;762;-83
2021/06/09 00:15:07;;;;;;;;;;;;;;;12.85;81.27;102244.94;5030287;28;863;-83
2021/06/09 00:17:32;;;;;;;;;;;;;;;12.85;81.46;102244.13;5029045;28;2016;-83
2021/06/09 00:19:57;;;;;;;;;;;;;;;12.85;81.40;102242.16;5043925;28;1861;-83
2021/06/09 00:22:23;;;;;;;;;;;;;;;12.82;81.55;102242.00;5047661;28;1826;-85
2021/06/09 00:24:48;;;;;;;;;;;;;;;12.76;81.98;102239.41;5031819;28;1158;-83
2021/06/09 00:27:14;;;;;;;;;;;;;;;12.72;82.18;102243.97;5050845;28;1891;-83
2021/06/09 00:29:40;;;;;;;;;;;;;;;12.66;82.15;102245.25;5030955;28;1386;-83
2021/06/09 00:32:05;;;;;;;;;;;;;;;12.62;82.50;102247.06;5028409;28;1928;-83
2021/06/09 00:34:31;;;;;;;;;;;;;;;12.59;82.54;102244.91;5043286;28;1849;-83
2021/06/09 00:36:57;;;;;;;;;;;;;;;12.58;82.59;102235.81;5050273;28;852;-82
2021/06/09 00:39:22;;;;;;;;;;;;;;;12.57;83.09;102233.34;5050687;28;1288;-83
2021/06/09 00:41:47;;;;;;;;;;;;;;;12.58;83.00;102232.22;5047737;28;805;-83
2021/06/09 00:44:13;;;;;;;;;;;;;;;12.60;83.03;102235.47;5051107;28;991;-83
2021/06/09 00:46:40;;;;;;;;;;;;;;;12.67;83.42;102233.03;5051188;28;2011;-83
2021/06/09 00:49:07;;;;;;;;;;;;;;;12.77;83.10;102238.28;5041423;28;1845;-84
2021/06/09 00:51:33;;;;;;;;;;;;;;;12.93;82.99;102238.59;5031018;28;1172;-83
2021/06/09 00:54:03;;;;;;;;;;;;;;;13.05;82.66;102228.81;5029599;28;1201;-83
2021/06/09 00:56:30;;;;;;;;;;;;;;;13.19;82.23;102232.22;5029786;28;1336;-83
2021/06/09 00:58:55;;;;;;;;;;;;;;;13.27;81.86;102236.97;5030589;28;1221;-83
2021/06/09 01:01:24;;;;;;;;;;;;;;;13.34;82.10;102236.47;5043178;28;1987;-83
2021/06/09 01:03:51;;;;;;;;;;;;;;;13.41;81.90;102234.03;5049487;28;1877;-83
2021/06/09 01:06:17;;;;;;;;;;;;;;;13.45;81.44;102234.19;5050303;28;1874;-83
2021/06/09 01:08:43;;;;;;;;;;;;;;;13.47;81.62;102232.69;5032773;28;1389;-83
2021/06/09 01:11:17;;;;;;;;;;;;;;;13.48;81.62;102230.75;5049698;28;930;-83
2021/06/09 01:13:44;;;;;;;;;;;;;;;13.49;81.17;102232.38;5049343;28;1007;-83
2021/06/09 01:16:10;;;;;;;;;;;;;;;13.50;81.45;102237.59;5030272;28;1702;-83
2021/06/09 01:18:35;;;;;;;;;;;;;;;13.47;81.09;102235.47;5044026;28;2036;-83
2021/06/09 01:21:02;;;;;;;;;;;;;;;13.46;81.57;102230.25;5028500;28;908;-83
2021/06/09 01:23:30;;;;;;;;;;;;;;;13.43;81.67;102226.19;5030166;28;1008;-83
2021/06/09 01:25:57;;;;;;;;;;;;;;;13.41;81.69;102222.09;5030368;28;2221;-83
2021/06/09 01:28:23;;;;;;;;;;;;;;;13.38;81.84;102223.59;5014084;28;2000;-83
2021/06/09 01:30:50;;;;;;;;;;;;;;;13.35;82.14;102215.91;5036598;28;1861;-83
2021/06/09 01:33:16;;;;;;;;;;;;;;;13.37;82.21;102227.50;5038063;28;1809;-83
2021/06/09 01:35:43;;;;;;;;;;;;;;;13.35;81.95;102227.00;5031919;28;1842;-84
2021/06/09 01:38:09;;;;;;;;;;;;;;;13.34;82.06;102225.38;5027832;28;1185;-83
2021/06/09 01:40:35;;;;;;;;;;;;;;;13.30;82.15;102219.63;5030673;28;861;-83
2021/06/09 01:43:04;;;;;;;;;;;;;;;13.26;82.39;102226.19;5012247;28;1924;-83
2021/06/09 01:45:33;;;;;;;;;;;;;;;13.20;82.80;102217.19;5029883;28;996;-83
2021/06/09 01:48:02;;;;;;;;;;;;;;;13.15;83.08;102215.44;5030157;28;1975;-84
2021/06/09 01:50:28;;;;;;;;;;;;;;;13.09;83.22;102222.28;4997690;28;1773;-83
2021/06/09 01:52:54;;;;;;;;;;;;;;;13.06;83.37;102220.16;4997456;28;1379;-82
2021/06/09 01:55:23;;;;;;;;;;;;;;;13.08;83.38;102223.44;4992358;28;1307;-83
2021/06/09 01:57:50;;;;;;;;;;;;;;;13.11;83.56;102210.84;5027263;28;1913;-82
2021/06/09 02:00:25;;;;;;;;;;;;;;;13.13;83.49;102212.19;5049451;28;1050;-83
2021/06/09 02:02:57;;;;;;;;;;;;;;;13.12;83.72;102213.31;5049527;28;1027;-83
2021/06/09 02:05:23;;;;;;;;;;;;;;;13.12;83.41;102220.81;5027467;28;1603;-83
2021/06/09 02:07:48;;;;;;;;;;;;;;;13.07;84.18;102215.44;5026845;28;1942;-83
2021/06/09 02:10:17;;;;;;;;;;;;;;;13.02;84.13;102212.84;5031192;28;1883;-83
2021/06/09 02:12:52;;;;;;;;;;;;;;;12.95;84.17;102214.13;5031070;28;1160;-83
2021/06/09 02:15:20;;;;;;;;;;;;;;;12.87;84.36;102211.34;5048064;28;780;-83
2021/06/09 02:18:12;;;;;;;;;;;;;;;12.79;84.69;102204.69;5030735;28;1289;-84
2021/06/09 02:20:50;;;;;;;;;;;;;;;12.69;84.96;102211.34;5047753;28;818;-83
2021/06/09 02:23:20;;;;;;;;;;;;;;;12.62;85.30;102213.78;5049212;28;1030;-83
2021/06/09 02:25:49;;;;;;;;;;;;;;;12.56;85.97;102204.84;5032597;28;1926;-84
2021/06/09 02:28:15;;;;;;;;;;;;;;;12.52;85.69;102209.38;5012010;28;1410;-83
2021/06/09 02:30:42;;;;;;;;;;;;;;;12.46;86.31;102196.84;5029635;28;1039;-83
2021/06/09 02:33:09;;;;;;;;;;;;;;;12.40;86.72;102201.69;5029094;28;1797;-83
2021/06/09 02:35:37;;;;;;;;;;;;;;;12.36;86.69;102208.22;5031094;28;1897;-83
2021/06/09 02:38:05;;;;;;;;;;;;;;;12.31;86.95;102205.59;5045838;28;1174;-83
2021/06/09 02:40:30;;;;;;;;;;;;;;;12.25;87.09;102207.72;5031260;28;1197;-83
2021/06/09 02:42:55;;;;;;;;;;;;;;;12.21;87.40;102207.50;5046672;28;1059;-83
2021/06/09 02:45:21;;;;;;;;;;;;;;;12.21;87.69;102209.47;5032151;28;1329;-83
2021/06/09 02:47:50;;;;;;;;;;;;;;;12.23;87.69;102201.66;5024913;28;1983;-83
2021/06/09 02:50:17;;;;;;;;;;;;;;;12.27;88.00;102199.06;5029026;28;2036;-83
2021/06/09 02:52:48;;;;;;;;;;;;;;;12.35;88.17;102201.03;5028585;28;1172;-83
2021/06/09 02:55:19;;;;;;;;;;;;;;;12.43;88.09;102194.72;5030074;28;941;-84
2021/06/09 02:57:57;;;;;;;;;;;;;;;12.50;87.71;102195.03;5011371;28;1214;-83
2021/06/09 03:00:39;;;;;;;;;;;;;;;12.55;87.85;102194.88;5031699;28;1956;-83
2021/06/09 03:03:17;;;;;;;;;;;;;;;12.60;87.53;102188.38;5030752;28;2112;-82
2021/06/09 03:05:53;;;;;;;;;;;;;;;12.63;87.82;102190.50;5039787;28;1948;-84
2021/06/09 03:08:26;;;;;;;;;;;;;;;12.66;87.83;102189.03;5011432;28;1291;-83
2021/06/09 03:10:59;;;;;;;;;;;;;;;12.68;87.76;102197.81;5029450;28;1062;-82
2021/06/09 03:14:01;;;;;;;;;;;;;;;12.69;87.65;102189.19;5029360;28;856;-83
2021/06/09 03:16:37;;;;;;;;;;;;;;;12.68;87.88;102193.09;5026764;28;1159;-83
2021/06/09 03:19:07;;;;;;;;;;;;;;;12.67;87.93;102191.47;5034547;28;1983;-83
2021/06/09 03:21:40;;;;;;;;;;;;;;;12.68;87.82;102187.53;5030885;28;1171;-83
2021/06/09 03:24:17;;;;;;;;;;;;;;;12.69;88.08;102191.97;5049899;28;995;-84
2021/06/09 03:27:03;;;;;;;;;;;;;;;12.73;87.73;102186.56;5031125;28;1953;-83
2021/06/09 03:29:38;;;;;;;;;;;;;;;12.75;88.01;102193.44;5048481;28;1356;-83
2021/06/09 03:32:22;;;;;;;;;;;;;;;12.83;87.73;102188.22;5029355;28;1797;-83
2021/06/09 03:34:54;;;;;;;;;;;;;;;12.92;87.74;102177.94;5012844;28;1623;-83
2021/06/09 03:37:23;;;;;;;;;;;;;;;13.04;87.74;102177.28;5005378;28;1269;-83
2021/06/09 03:39:56;;;;;;;;;;;;;;;13.14;87.39;102180.50;5009523;28;992;-83
2021/06/09 03:42:23;;;;;;;;;;;;;;;13.26;87.03;102182.63;5011106;28;634;-83
2021/06/09 03:44:52;;;;;;;;;;;;;;;13.37;86.83;102185.88;5006946;28;1348;-83
2021/06/09 03:47:19;;;;;;;;;;;;;;;13.48;86.89;102181.63;5033266;28;1954;-83
2021/06/09 03:49:46;;;;;;;;;;;;;;;13.58;86.81;102193.50;5036569;28;1988;-83
2021/06/09 03:52:13;;;;;;;;;;;;;;;13.65;86.47;102189.06;5032638;28;794;-83
2021/06/09 03:54:41;;;;;;;;;;;;;;;13.70;85.92;102188.91;5030161;28;948;-83
2021/06/09 03:57:07;;;;;;;;;;;;;;;13.75;85.98;102187.88;5012995;28;1260;-83
2021/06/09 03:59:32;;;;;;;;;;;;;;;13.75;85.73;102181.53;5031617;28;1220;-83
2021/06/09 04:01:59;;;;;;;;;;;;;;;13.73;85.63;102176.28;5048431;28;1955;-83
2021/06/09 04:04:28;;;;;;;;;;;;;;;13.75;85.74;102179.53;5048977;28;1948;-83
2021/06/09 04:06:57;;;;;;;;;;;;;;;13.73;85.74;102174.31;5033701;28;1867;-83
2021/06/09 04:09:24;;;;;;;;;;;;;;;13.75;85.60;102185.09;5034558;28;1237;-82
2021/06/09 04:11:59;;;;;;;;;;;;;;;13.77;85.72;102176.44;5031434;28;1292;-83
2021/06/09 04:14:37;;;;;;;;;;;;;;;13.83;85.49;102180.69;5035255;28;1955;-83
2021/06/09 04:17:05;;;;;;;;;;;;;;;13.89;85.09;102179.31;5008067;28;1231;-82
2021/06/09 04:19:32;;;;;;;;;;;;;;;13.95;84.84;102179.97;5022208;28;1924;-83
2021/06/09 04:21:59;;;;;;;;;;;;;;;14.02;85.07;102178.28;5030907;28;1236;-83
2021/06/09 04:24:24;;;;;;;;;;;;;;;14.13;84.52;102175.13;5027138;28;1180;-84
2021/06/09 04:26:52;;;;;;;;;;;;;;;14.25;84.07;102180.75;5044867;28;1889;-83
2021/06/09 04:29:21;;;;;;;;;;;;;;;14.32;83.88;102178.25;5017186;28;2004;-84
2021/06/09 04:31:47;;;;;;;;;;;;;;;14.39;84.13;102177.72;5029812;28;873;-84
2021/06/09 04:34:13;;;;;;;;;;;;;;;14.45;84.10;102170.84;5018902;28;1904;-84
2021/06/09 04:36:38;;;;;;;;;;;;;;;14.59;84.12;102167.81;5041815;28;2771;-83
2021/06/09 04:39:04;;;;;;;;;;;;;;;14.80;83.54;102167.81;5048160;28;1197;-84
2021/06/09 04:41:29;;;;;;;;;;;;;;;15.06;83.13;102180.66;5045839;28;1321;-84
2021/06/09 04:43:55;;;;;;;;;;;;;;;15.32;81.96;102172.84;5030712;28;1363;-84
2021/06/09 04:46:22;;;;;;;;;;;;;;;15.62;80.85;102169.88;5047481;28;2678;-84
2021/06/09 04:49:05;;;;;;;;;;;;;;;15.93;79.79;102172.13;5038947;28;3119;-84
2021/06/09 04:51:37;;;;;;;;;;;;;;;16.22;78.90;102172.25;5031570;28;1309;-83
2021/06/09 04:54:07;;;;;;;;;;;;;;;16.47;77.71;102178.56;5047565;28;1012;-83
2021/06/09 04:56:34;;;;;;;;;;;;;;;16.63;75.56;102170.28;5048848;28;817;-84
2021/06/09 04:59:02;;;;;;;;;;;;;;;16.76;75.08;102171.88;5031491;28;1226;-83
2021/06/09 05:01:27;;;;;;;;;;;;;;;16.79;73.07;102171.16;5048613;28;1075;-83
2021/06/09 05:03:53;;;;;;;;;;;;;;;16.78;72.00;102169.53;5038981;28;1963;-83
2021/06/09 05:06:18;;;;;;;;;;;;;;;16.87;72.18;102164.66;5031110;28;1871;-83
2021/06/09 05:08:43;;;;;;;;;;;;;;;17.01;71.51;102163.41;5046677;28;2164;-83
2021/06/09 05:11:15;;;;;;;;;;;;;;;17.00;69.56;102164.59;5020740;28;1901;-83
2021/06/09 05:13:44;;;;;;;;;;;;;;;17.10;69.24;102167.69;5028568;28;853;-83
2021/06/09 05:16:14;;;;;;;;;;;;;;;17.17;69.66;102166.25;5028215;28;1243;-83
2021/06/09 05:18:43;;;;;;;;;;;;;;;17.42;69.63;102167.75;5034223;28;2000;-83
2021/06/09 05:21:09;;;;;;;;;;;;;;;17.53;66.90;102168.03;5037537;28;1742;-84
2021/06/09 05:23:41;;;;;;;;;;;;;;;17.67;68.07;102167.56;5028471;28;1047;-82
2021/06/09 05:26:10;;;;;;;;;;;;;;;17.88;68.66;102170.09;5042286;28;1882;-84
2021/06/09 05:28:42;;;;;;;;;;;;;;;17.98;67.16;102166.75;5047444;28;1177;-83
2021/06/09 05:31:09;;;;;;;;;;;;;;;18.13;66.07;102158.69;5020187;28;1923;-83
2021/06/09 05:33:36;;;;;;;;;;;;;;;18.25;66.98;102158.56;5029604;28;1840;-85
2021/06/09 05:36:03;;;;;;;;;;;;;;;18.41;66.01;102162.16;5029923;28;1258;-83
2021/06/09 05:38:29;;;;;;;;;;;;;;;18.59;64.97;102168.13;5044996;28;1992;-83
2021/06/09 05:40:59;;;;;;;;;;;;;;;18.76;64.90;102155.69;5031040;28;1788;-83
2021/06/09 05:43:27;;;;;;;;;;;;;;;18.97;64.29;102160.94;5029646;28;1331;-83
2021/06/09 05:45:55;;;;;;;;;;;;;;;19.03;63.09;102161.44;5035373;28;2028;-83
2021/06/09 05:48:21;;;;;;;;;;;;;;;18.94;62.48;102164.47;5026792;28;1458;-83
2021/06/09 05:50:52;;;;;;;;;;;;;;;18.98;63.67;102162.56;5025631;28;2823;-82
2021/06/09 05:53:18;;;;;;;;;;;;;;;19.08;61.19;102163.13;5027125;28;1026;-83
2021/06/09 05:55:47;;;;;;;;;;;;;;;18.84;61.17;102165.06;5030710;28;1806;-83
2021/06/09 05:58:22;;;;;;;;;;;;;;;18.75;60.94;102162.44;5004800;28;1857;-83
2021/06/09 06:00:54;;;;;;;;;;;;;;;18.87;61.01;102152.34;5022455;28;1542;-83
2021/06/09 06:03:21;;;;;;;;;;;;;;;19.12;59.67;102159.22;5021545;28;1078;-83
2021/06/09 06:05:49;;;;;;;;;;;;;;;19.19;59.58;102163.31;5032036;28;1916;-84
2021/06/09 06:08:14;;;;;;;;;;;;;;;19.37;58.91;102155.28;5026118;28;1236;-83
2021/06/09 06:10:40;;;;;;;;;;;;;;;19.63;58.64;102152.50;5029549;28;1523;-83
2021/06/09 06:13:07;;;;;;;;;;;;;;;19.89;57.47;102153.75;5025100;28;1008;-83
2021/06/09 06:15:33;;;;;;;;;;;;;;;20.14;57.31;102151.34;5035809;28;1913;-83
2021/06/09 06:17:58;;;;;;;;;;;;;;;20.27;56.59;102149.91;5030275;28;1782;-83
2021/06/09 06:20:24;;;;;;;;;;;;;;;20.53;55.56;102148.25;5045096;28;1920;-84
2021/06/09 06:22:51;;;;;;;;;;;;;;;20.62;55.17;102148.00;5026376;28;1352;-83
2021/06/09 06:25:21;;;;;;;;;;;;;;;20.90;55.93;102152.31;5030644;28;900;-82
2021/06/09 06:27:48;;;;;;;;;;;;;;;21.19;52.91;102151.44;5039134;28;1870;-82
2021/06/09 06:30:16;;;;;;;;;;;;;;;21.20;53.53;102139.03;5029694;28;1670;-81
2021/06/09 06:32:42;;;;;;;;;;;;;;;21.21;53.13;102149.06;5019254;28;976;-82
2021/06/09 06:35:12;;;;;;;;;;;;;;;21.56;54.09;102144.19;5019706;28;1858;-81
2021/06/09 06:37:37;;;;;;;;;;;;;;;21.85;53.51;102135.97;5055972;28;1287;-83
2021/06/09 06:40:05;;;;;;;;;;;;;;;22.79;53.46;102140.09;5048026;28;988;-83
2021/06/09 06:42:31;;;;;;;;;;;;;;;23.34;49.80;102131.41;5026411;28;1023;-84
2021/06/09 06:44:57;;;;;;;;;;;;;;;24.61;47.58;102124.34;5028692;28;1939;-82
2021/06/09 06:47:25;;;;;;;;;;;;;;;25.76;46.98;102125.56;5048031;28;1920;-83
2021/06/09 06:49:52;;;;;;;;;;;;;;;26.34;43.75;102128.63;5025467;28;933;-82
2021/06/09 06:52:17;;;;;;;;;;;;;;;26.97;41.79;102126.16;4996393;28;1948;-82
2021/06/09 06:54:42;;;;;;;;;;;;;;;27.43;42.89;102126.69;5023173;28;1000;-82
2021/06/09 06:57:09;;;;;;;;;;;;;;;27.92;41.85;102127.06;5010946;28;1290;-81
2021/06/09 06:59:35;;;;;;;;;;;;;;;28.62;39.96;102125.28;5010999;28;881;-82
2021/06/09 07:02:05;;;;;;;;;;;;;;;29.11;38.82;102120.94;5012012;28;2125;-82
2021/06/09 07:04:31;;;;;;;;;;;;;;;29.29;36.63;102118.47;5037082;28;1865;-82
2021/06/09 07:06:57;;;;;;;;;;;;;;;29.60;35.33;102120.94;5032808;28;2034;-82
2021/06/09 07:09:24;;;;;;;;;;;;;;;30.31;33.76;102118.16;5028128;28;1280;-81
2021/06/09 07:11:52;;;;;;;;;;;;;;;30.50;33.51;102116.41;5028062;28;1004;-81
2021/06/09 07:14:23;;;;;;;;;;;;;;;30.96;33.41;102110.56;5007757;28;838;-81
2021/06/09 07:16:49;;;;;;;;;;;;;;;31.27;32.71;102107.91;5028868;28;862;-81
2021/06/09 07:19:16;;;;;;;;;;;;;;;31.70;31.04;102111.38;5045076;28;2144;-82
2021/06/09 07:21:42;;;;;;;;;;;;;;;32.12;30.04;102113.94;5037072;28;1865;-81
2021/06/09 07:24:08;;;;;;;;;;;;;;;32.95;27.98;102117.28;5028969;28;1687;-82
2021/06/09 07:26:37;;;;;;;;;;;;;;;33.42;28.95;102103.91;5027736;28;1898;-82
2021/06/09 07:29:04;;;;;;;;;;;;;;;33.45;28.10;102105.03;5027612;28;1197;-81
2021/06/09 07:31:34;;;;;;;;;;;;;;;33.71;27.77;102105.56;5030401;28;794;-81
2021/06/09 07:34:00;;;;;;;;;;;;;;;34.78;26.35;102099.00;5030161;28;1969;-80
2021/06/09 07:36:32;;;;;;;;;;;;;;;35.74;23.37;102099.06;5037365;28;1910;-82
2021/06/09 07:39:05;;;;;;;;;;;;;;;36.06;23.68;102104.38;5021892;28;1237;-81
2021/06/09 07:41:32;;;;;;;;;;;;;;;35.99;22.02;102099.03;5012350;28;1173;-81
2021/06/09 07:44:00;;;;;;;;;;;;;;;36.45;21.90;102093.59;5011288;28;1193;-82
2021/06/09 07:46:28;;;;;;;;;;;;;;;37.04;21.47;102094.78;5024400;28;1906;-81
2021/06/09 07:49:00;;;;;;;;;;;;;;;37.61;20.78;102099.22;5028366;28;1805;-80
2021/06/09 07:51:26;;;;;;;;;;;;;;;37.44;21.20;102096.91;5021576;28;2555;-80
2021/06/09 07:53:54;;;;;;;;;;;;;;;37.79;19.37;102098.13;5049088;28;852;-79
2021/06/09 07:56:21;;;;;;;;;;;;;;;37.91;18.61;102099.03;5047459;28;833;-80
2021/06/09 07:58:48;;;;;;;;;;;;;;;37.63;20.41;102094.50;5029931;28;1309;-80
2021/06/09 08:01:15;;;;;;;;;;;;;;;38.03;19.64;102097.84;5047662;28;840;-80
2021/06/09 08:03:41;;;;;;;;;;;;;;;38.96;18.00;102096.03;5031025;28;1290;-80
2021/06/09 08:06:07;;;;;;;;;;;;;;;38.92;17.71;102094.16;5038269;28;2312;-80
2021/06/09 08:08:33;;;;;;;;;;;;;;;38.37;18.34;102101.88;5028209;28;1272;-80
2021/06/09 08:10:59;;;;;;;;;;;;;;;37.78;19.67;102102.31;5010743;28;996;-80
2021/06/09 08:13:25;;;;;;;;;;;;;;;38.23;19.75;102093.38;5028958;28;1020;-82
2021/06/09 08:15:51;;;;;;;;;;;;;;;38.97;18.75;102089.75;5028694;28;925;-80
2021/06/09 08:18:17;;;;;;;;;;;;;;;39.12;19.11;102086.69;5027743;28;1173;-80
2021/06/09 08:21:01;;;;;;;;;;;;;;;39.05;18.09;102099.50;5029234;28;1974;-80
2021/06/09 08:23:27;;;;;;;;;;;;;;;38.28;18.94;102096.28;5027561;28;1012;-80
2021/06/09 08:25:52;;;;;;;;;;;;;;;37.79;18.65;102095.25;5027178;28;1874;-80
2021/06/09 08:28:17;;;;;;;;;;;;;;;37.89;20.56;102098.75;5010122;28;1251;-80
2021/06/09 08:30:42;;;;;;;;;;;;;;;38.19;19.17;102097.25;5028562;28;1079;-80
2021/06/09 08:33:08;;;;;;;;;;;;;;;38.18;19.66;102095.66;5029260;28;1955;-80
2021/06/09 08:35:33;;;;;;;;;;;;;;;38.42;18.88;102091.69;5028299;28;1841;-79
2021/06/09 08:37:58;;;;;;;;;;;;;;;38.69;17.70;102083.78;5010311;28;1268;-80
2021/06/09 08:40:24;;;;;;;;;;;;;;;38.77;19.32;102095.66;5028324;28;1027;-79
2021/06/09 08:42:53;;;;;;;;;;;;;;;38.96;20.67;102090.25;5028067;28;1036;-79
2021/06/09 08:45:19;;;;;;;;;;;;;;;39.70;17.54;102091.38;5030321;28;1967;-79
2021/06/09 08:47:44;;;;;;;;;;;;;;;40.11;17.44;102090.97;5028218;28;1894;-80
2021/06/09 08:50:12;;;;;;;;;;;;;;;39.88;17.56;102082.22;5046253;28;2015;-80
2021/06/09 08:52:46;;;;;;;;;;;;;;;39.89;16.06;102095.38;5028668;28;1924;-79
2021/06/09 08:55:12;;;;;;;;;;;;;;;39.06;15.56;102091.66;5027607;28;865;-80
2021/06/09 08:57:39;;;;;;;;;;;;;;;37.47;17.58;102092.25;5020177;28;1209;-80
2021/06/09 09:00:05;;;;;;;;;;;;;;;38.22;17.49;102081.03;5043770;28;1841;-80
2021/06/09 09:02:31;;;;;;;;;;;;;;;38.90;15.89;102087.31;5047327;28;851;-80
2021/06/09 09:04:56;;;;;;;;;;;;;;;39.08;18.72;102083.25;5028946;28;984;-80
2021/06/09 09:07:26;;;;;;;;;;;;;;;39.75;16.02;102082.75;5028060;28;2109;-80
2021/06/09 09:09:51;;;;;;;;;;;;;;;40.89;15.69;102081.50;5027009;28;845;-79
2021/06/09 09:12:17;;;;;;;;;;;;;;;41.36;17.04;102086.59;5027214;28;869;-79
2021/06/09 09:14:42;;;;;;;;;;;;;;;41.75;16.00;102081.94;5029428;28;1864;-80
2021/06/09 09:17:11;;;;;;;;;;;;;;;42.14;15.67;102089.56;5046706;28;1929;-80
2021/06/09 09:19:42;;;;;;;;;;;;;;;41.36;15.45;102083.72;5044191;28;1976;-80
2021/06/09 09:22:17;;;;;;;;;;;;;;;42.12;15.80;102090.13;5029937;28;2010;-80
2021/06/09 09:24:48;;;;;;;;;;;;;;;43.08;14.59;102077.59;5020802;28;1198;-79
2021/06/09 09:27:29;;;;;;;;;;;;;;;42.86;14.07;102078.63;5025611;28;1948;-80
2021/06/09 09:30:05;;;;;;;;;;;;;;;42.27;15.14;102086.84;5028076;28;841;-80
2021/06/09 09:32:31;;;;;;;;;;;;;;;42.83;14.91;102086.31;5026660;28;2049;-80
2021/06/09 09:35:04;;;;;;;;;;;;;;;43.55;14.53;102085.97;5019517;28;1829;-80
2021/06/09 09:37:32;;;;;;;;;;;;;;;43.52;14.76;102078.38;5003444;28;1596;-80
2021/06/09 09:40:23;;;;;;;;;;;;;;;43.10;14.26;102074.16;5024449;28;2173;-80
2021/06/09 09:42:50;;;;;;;;;;;;;;;43.37;15.48;102075.94;5007093;28;1178;-80
2021/06/09 09:45:18;;;;;;;;;;;;;;;42.97;14.06;102086.47;5003443;28;1218;-80
2021/06/09 09:48:04;;;;;;;;;;;;;;;42.92;14.60;102088.09;5039323;28;1957;-79
2021/06/09 09:50:35;;;;;;;;;;;;;;;43.35;14.15;102080.72;5028790;28;1785;-80
2021/06/09 09:53:17;;;;;;;;;;;;;;;43.88;14.11;102075.19;5022892;28;845;-80
2021/06/09 09:55:57;;;;;;;;;;;;;;;43.58;14.84;102073.25;5020532;28;2235;-80
2021/06/09 09:58:23;;;;;;;;;;;;;;;43.18;14.25;102081.69;5016193;28;1289;-80
2021/06/09 10:00:49;;;;;;;;;;;;;;;42.91;14.90;102083.56;5024807;28;1868;-80
2021/06/09 10:03:18;;;;;;;;;;;;;;;42.53;15.38;102089.25;5003757;28;1221;-81
2021/06/09 10:05:43;;;;;;;;;;;;;;;43.09;16.13;102084.19;5021026;28;1767;-80
2021/06/09 10:08:09;;;;;;;;;;;;;;;43.69;14.59;102069.38;5041322;28;1890;-80
2021/06/09 10:10:35;;;;;;;;;;;;;;;43.81;13.95;102077.97;5043752;28;833;-80
2021/06/09 10:13:09;;;;;;;;;;;;;;;43.54;13.09;102083.63;5043618;28;988;-80
2021/06/09 10:15:49;;;;;;;;;;;;;;;42.50;14.21;102080.81;5041493;28;1999;-80
2021/06/09 10:18:20;;;;;;;;;;;;;;;42.44;14.07;102077.97;5042881;28;1312;-80
2021/06/09 10:20:48;;;;;;;;;;;;;;;43.32;14.49;102075.97;5032459;28;1706;-80
2021/06/09 10:23:33;;;;;;;;;;;;;;;43.54;14.47;102069.88;5044276;28;935;-80
2021/06/09 10:26:11;;;;;;;;;;;;;;;43.60;14.62;102069.78;5043350;28;1890;-80
2021/06/09 10:29:00;;;;;;;;;;;;;;;43.79;14.82;102063.97;5023956;28;1312;-80
2021/06/09 10:31:27;;;;;;;;;;;;;;;44.36;14.09;102063.06;5003167;28;841;-80
2021/06/09 10:33:53;;;;;;;;;;;;;;;44.92;14.40;102061.22;5016544;28;1256;-80
2021/06/09 10:36:19;;;;;;;;;;;;;;;45.17;13.61;102071.28;5034990;28;1687;-79
2021/06/09 10:38:46;;;;;;;;;;;;;;;45.16;13.74;102066.81;5028193;28;1185;-80
2021/06/09 10:41:13;;;;;;;;;;;;;;;45.34;14.27;102070.16;5021657;28;1032;-80
2021/06/09 10:43:42;;;;;;;;;;;;;;;44.90;13.63;102069.72;5003983;28;1313;-80
2021/06/09 10:46:08;;;;;;;;;;;;;;;45.26;13.10;102064.22;5020053;28;3147;-80
2021/06/09 10:48:35;;;;;;;;;;;;;;;44.89;13.58;102066.03;5020940;28;1389;-80
2021/06/09 10:51:00;;;;;;;;;;;;;;;45.93;12.60;102061.91;5025043;28;2012;-80
2021/06/09 10:53:27;;;;;;;;;;;;;;;44.22;14.58;102063.03;5008189;28;2858;-80
2021/06/09 10:55:53;;;;;;;;;;;;;;;42.26;16.68;102077.34;5006335;28;940;-80
2021/06/09 10:58:18;;;;;;;;;;;;;;;38.96;18.89;102070.81;5017293;28;1232;-79
2021/06/09 11:00:44;;;;;;;;;;;;;;;36.85;20.66;102088.50;5025018;28;909;-79
2021/06/09 11:03:10;;;;;;;;;;;;;;;35.27;21.53;102086.34;5023717;28;2263;-79
2021/06/09 11:05:36;;;;;;;;;;;;;;;33.75;25.22;102086.16;5023448;28;2213;-79
2021/06/09 11:08:06;;;;;;;;;;;;;;;32.85;25.31;102098.50;5024091;28;1961;-79
2021/06/09 11:10:31;;;;;;;;;;;;;;;31.77;26.61;102084.59;5021695;28;1185;-82
2021/06/09 11:12:58;;;;;;;;;;;;;;;33.10;25.91;102091.75;5025641;28;1055;-81
2021/06/09 11:15:32;;;;;;;;;;;;;;;35.24;23.86;102083.66;5025380;28;1007;-80
2021/06/09 11:18:00;;;;;;;;;;;;;;;37.04;21.32;102077.53;5008988;28;1312;-80
2021/06/09 11:20:32;;;;;;;;;;;;;;;38.35;18.46;102064.09;5010758;28;1747;-80
2021/06/09 11:23:16;;;;;;;;;;;;;;;37.70;18.93;102069.47;5034195;28;1782;-81
2021/06/09 11:25:47;;;;;;;;;;;;;;;36.09;20.68;102077.53;5018977;28;1219;-79
2021/06/09 11:28:14;;;;;;;;;;;;;;;36.49;20.96;102071.19;5013212;28;2596;-79
2021/06/09 11:30:51;;;;;;;;;;;;;;;35.21;22.54;102076.81;5021720;28;813;-79
2021/06/09 11:33:38;;;;;;;;;;;;;;;33.46;23.90;102073.06;5023808;28;833;-79
2021/06/09 11:36:25;;;;;;;;;;;;;;;34.71;22.93;102070.69;5022166;28;1739;-80
2021/06/09 11:38:57;;;;;;;;;;;;;;;36.44;20.93;102059.59;5018435;28;1584;-80
2021/06/09 11:41:34;;;;;;;;;;;;;;;35.01;22.45;102066.72;5045880;28;845;-80
2021/06/09 11:43:59;;;;;;;;;;;;;;;34.19;24.75;102067.78;5046491;28;1048;-80
2021/06/09 11:46:34;;;;;;;;;;;;;;;35.57;24.55;102072.88;5027482;28;1898;-82
2021/06/09 11:49:07;;;;;;;;;;;;;;;37.03;21.59;102056.59;5026377;28;1794;-80
2021/06/09 11:51:35;;;;;;;;;;;;;;;40.18;17.40;102047.06;5037027;28;1901;-79
2021/06/09 11:54:02;;;;;;;;;;;;;;;41.26;17.25;102041.88;5026680;28;1153;-79
2021/06/09 11:56:50;;;;;;;;;;;;;;;41.79;16.11;102042.66;5020209;28;1183;-79
2021/06/09 11:59:28;;;;;;;;;;;;;;;41.85;16.33;102039.69;5025187;28;1304;-79
2021/06/09 12:01:55;;;;;;;;;;;;;;;41.74;15.99;102037.69;5022853;28;1885;-79
2021/06/09 12:04:36;;;;;;;;;;;;;;;41.28;16.83;102040.03;5044849;28;844;-79
2021/06/09 12:07:11;;;;;;;;;;;;;;;40.06;18.19;102028.94;5028539;28;2038;-80
2021/06/09 12:09:39;;;;;;;;;;;;;;;39.82;17.60;102038.88;5020935;28;1415;-80
2021/06/09 12:12:10;;;;;;;;;;;;;;;38.26;19.52;102041.22;5022980;28;1283;-79
2021/06/09 12:14:39;;;;;;;;;;;;;;;37.11;19.30;102033.13;5023919;28;2015;-80
2021/06/09 12:17:10;;;;;;;;;;;;;;;37.76;19.88;102036.56;5020549;28;1675;-79
2021/06/09 12:19:38;;;;;;;;;;;;;;;37.61;19.68;102032.97;5023312;28;877;-80
2021/06/09 12:22:07;;;;;;;;;;;;;;;37.38;19.77;102043.44;5050609;28;2141;-79
2021/06/09 12:24:35;;;;;;;;;;;;;;;37.41;19.23;102037.47;5032768;28;2008;-82
2021/06/09 12:27:05;;;;;;;;;;;;;;;37.11;19.42;102036.00;5026072;28;1870;-82
2021/06/09 12:29:33;;;;;;;;;;;;;;;36.17;21.42;102040.56;5023832;28;1269;-82
2021/06/09 12:32:00;;;;;;;;;;;;;;;36.04;22.09;102030.16;5026256;28;817;-82
2021/06/09 12:34:33;;;;;;;;;;;;;;;36.85;21.45;102031.75;5024022;28;817;-82
2021/06/09 12:37:06;;;;;;;;;;;;;;;36.69;21.56;102035.97;5024828;28;2129;-82
2021/06/09 12:39:31;;;;;;;;;;;;;;;37.11;20.14;102030.25;5024731;28;1253;-81
2021/06/09 12:41:57;;;;;;;;;;;;;;;37.23;21.15;102029.91;5024501;28;1063;-82
2021/06/09 12:44:24;;;;;;;;;;;;;;;38.71;19.54;102020.56;5023780;28;1951;-80
2021/06/09 12:46:55;;;;;;;;;;;;;;;38.91;18.29;102013.88;5023418;28;1926;-80
2021/06/09 12:49:27;;;;;;;;;;;;;;;39.50;19.04;102015.19;5024722;28;1861;-80
2021/06/09 12:52:00;;;;;;;;;;;;;;;39.33;18.53;102009.31;5003651;28;1865;-79
2021/06/09 12:54:25;;;;;;;;;;;;;;;36.95;20.14;102023.00;5024835;28;1773;-79
2021/06/09 12:56:50;;;;;;;;;;;;;;;36.47;20.43;102024.88;5024538;28;924;-80